createdAt,value
2023-03-11T00:04:31.587Z,6.72
2023-03-11T00:09:34.143Z,6.68
2023-03-11T00:14:35.594Z,6.72
2023-03-11T00:19:37.112Z,6.79
2023-03-11T00:24:38.621Z,6.70
2023-03-11T00:29:40.092Z,6.61
2023-03-11T00:34:41.861Z,6.63
2023-03-11T00:39:43.410Z,6.66
2023-03-11T00:44:46.122Z,6.72
2023-03-11T00:49:47.976Z,6.68
2023-03-11T00:54:50.095Z,6.60
2023-03-11T00:59:51.945Z,6.79
2023-03-11T01:04:55.090Z,6.75
2023-03-11T01:09:56.612Z,6.64
2023-03-11T01:14:58.482Z,6.65
2023-03-11T01:20:00.051Z,6.68
2023-03-11T01:25:01.611Z,6.62
2023-03-11T01:30:05.942Z,6.53
2023-03-11T01:35:07.711Z,6.54
2023-03-11T01:40:24.168Z,6.59
2023-03-11T01:45:50.505Z,6.63
2023-03-11T01:50:56.953Z,6.55
2023-03-11T01:55:58.669Z,6.63
2023-03-11T02:01:02.500Z,6.71
2023-03-11T02:06:09.871Z,6.73
2023-03-11T02:11:17.759Z,6.85
2023-03-11T02:16:19.410Z,6.96
2023-03-11T02:21:32.015Z,7.02
2023-03-11T02:26:43.185Z,7.00
2023-03-11T02:31:45.787Z,6.80
2023-03-11T02:36:47.937Z,6.89
2023-03-11T02:41:50.422Z,6.86
2023-03-11T02:46:53.220Z,6.95
2023-03-11T02:51:56.369Z,6.99
2023-03-11T02:56:58.338Z,7.07
2023-03-11T03:02:01.796Z,7.07
2023-03-11T03:07:03.994Z,7.01
2023-03-11T03:12:06.593Z,7.06
2023-03-11T03:17:09.516Z,7.14
2023-03-11T03:22:11.135Z,7.15
2023-03-11T03:27:12.664Z,7.11
2023-03-11T03:32:15.525Z,7.05
2023-03-11T03:37:17.371Z,6.95
2023-03-11T03:42:19.650Z,6.93
2023-03-11T03:47:21.204Z,6.90
2023-03-11T03:52:22.927Z,6.83
2023-03-11T03:57:24.648Z,6.85
2023-03-11T04:02:26.492Z,6.96
2023-03-11T04:07:29.817Z,6.94
2023-03-11T04:12:31.595Z,6.61
2023-03-11T04:17:33.478Z,6.63
2023-03-11T04:22:36.882Z,6.71
2023-03-11T04:27:39.436Z,6.66
2023-03-11T04:32:41.715Z,6.57
2023-03-11T04:37:44.609Z,6.61
2023-03-11T04:42:46.551Z,6.58
2023-03-11T04:47:52.832Z,6.52
2023-03-11T04:52:54.854Z,6.52
2023-03-11T04:57:57.397Z,6.59
2023-03-11T05:02:59.149Z,6.52
2023-03-11T05:08:00.680Z,6.46
2023-03-11T05:13:06.107Z,6.57
2023-03-11T05:18:11.588Z,6.55
2023-03-11T05:23:14.068Z,6.51
2023-03-11T05:28:16.300Z,6.30
2023-03-11T05:33:24.278Z,6.24
2023-03-11T05:38:27.025Z,6.33
2023-03-11T05:43:28.849Z,6.32
2023-03-11T05:48:31.241Z,6.39
2023-03-11T05:53:33.721Z,6.36
2023-03-11T05:58:35.296Z,6.43
2023-03-11T06:03:39.518Z,6.46
2023-03-11T06:08:41.368Z,6.06
2023-03-11T06:13:43.094Z,6.08
2023-03-11T06:18:45.887Z,6.08
2023-03-11T06:23:47.847Z,6.18
2023-03-11T06:28:51.992Z,6.16
2023-03-11T06:33:54.292Z,5.93
2023-03-11T06:38:55.876Z,5.79
2023-03-11T06:43:59.772Z,5.75
2023-03-11T06:49:02.976Z,5.86
2023-03-11T06:54:05.541Z,5.85
2023-03-11T06:59:08.064Z,5.98
2023-03-11T07:04:10.623Z,6.03
2023-03-11T07:09:14.536Z,5.98
2023-03-11T07:14:19.442Z,5.83
2023-03-11T07:19:25.517Z,5.75
2023-03-11T07:24:27.066Z,5.90
2023-03-11T07:29:28.555Z,6.01
2023-03-11T07:34:30.066Z,6.12
2023-03-11T07:39:32.641Z,5.96
2023-03-11T07:44:34.435Z,5.91
2023-03-11T07:49:35.918Z,5.79
2023-03-11T07:54:37.452Z,5.74
2023-03-11T07:59:38.937Z,5.65
2023-03-11T08:04:40.600Z,5.64
2023-03-11T08:09:42.052Z,5.67
2023-03-11T08:14:43.699Z,5.66
2023-03-11T08:19:45.233Z,5.83
2023-03-11T08:24:50.929Z,5.81
2023-03-11T08:29:52.489Z,5.89
2023-03-11T08:34:54.239Z,5.91
2023-03-11T08:39:55.830Z,5.95
2023-03-11T08:44:57.273Z,6.15
2023-03-11T08:49:58.757Z,6.00
2023-03-11T08:55:00.288Z,6.07
2023-03-11T09:00:01.885Z,6.12
2023-03-11T09:05:03.870Z,5.92
2023-03-11T09:10:06.679Z,6.05
2023-03-11T09:15:09.832Z,5.99
2023-03-11T09:20:13.941Z,6.05
2023-03-11T09:25:15.480Z,5.97
2023-03-11T09:30:17.255Z,5.99
2023-03-11T09:35:18.913Z,6.22
2023-03-11T09:40:23.095Z,6.25
2023-03-11T09:45:34.525Z,6.44
2023-03-11T09:51:14.617Z,6.43
2023-03-11T09:56:20.273Z,6.54
2023-03-11T10:01:35.803Z,6.50
2023-03-11T10:06:39.768Z,6.55
2023-03-11T10:11:56.336Z,6.54
2023-03-11T10:17:25.748Z,6.68
2023-03-11T10:22:45.414Z,6.69
2023-03-11T10:27:58.711Z,6.68
2023-03-11T10:33:07.724Z,6.80
2023-03-11T10:38:21.629Z,6.68
2023-03-11T10:43:35.316Z,6.67
2023-03-11T10:48:36.777Z,6.54
2023-03-11T10:53:50.512Z,6.54
2023-03-11T10:58:51.963Z,6.64
2023-03-11T11:03:55.574Z,6.58
2023-03-11T11:09:15.329Z,6.70
2023-03-11T11:14:16.852Z,6.82
2023-03-11T11:19:19.826Z,6.83
2023-03-11T11:24:27.681Z,7.04
2023-03-11T11:29:31.835Z,7.05
2023-03-11T11:34:35.003Z,6.96
2023-03-11T11:39:58.735Z,7.07
2023-03-11T11:45:12.340Z,7.35
2023-03-11T11:50:36.919Z,7.44
2023-03-11T11:55:44.311Z,7.68
2023-03-11T12:01:01.612Z,7.99
2023-03-11T12:06:17.548Z,8.14
2023-03-11T12:11:55.131Z,8.36
2023-03-11T12:17:04.922Z,8.53
2023-03-11T12:22:25.148Z,8.63
2023-03-11T12:27:33.174Z,9.08
2023-03-11T12:32:39.840Z,9.32
2023-03-11T12:37:41.475Z,9.57
2023-03-11T12:42:42.981Z,9.43
2023-03-11T12:47:44.555Z,9.01
2023-03-11T12:52:54.738Z,8.69
2023-03-11T12:58:11.499Z,8.71
2023-03-11T13:03:16.888Z,8.44
2023-03-11T13:08:23.786Z,8.57
2023-03-11T13:13:25.292Z,8.60
2023-03-11T13:18:30.505Z,8.56
2023-03-11T13:23:39.177Z,8.66
2023-03-11T13:29:18.389Z,8.67
2023-03-11T13:34:31.908Z,8.73
2023-03-11T13:39:43.624Z,8.79
2023-03-11T13:44:47.447Z,8.57
2023-03-11T13:50:00.941Z,8.43
2023-03-11T13:55:07.276Z,8.55
2023-03-11T14:00:18.459Z,8.56
2023-03-11T14:05:32.271Z,8.50
2023-03-11T14:10:33.805Z,8.63
2023-03-11T14:16:02.394Z,8.82
2023-03-11T14:21:06.906Z,8.67
2023-03-11T14:26:13.560Z,8.60
2023-03-11T14:31:36.221Z,8.58
2023-03-11T14:36:55.853Z,8.54
2023-03-11T14:42:22.287Z,8.59
2023-03-11T14:47:42.626Z,8.64
2023-03-11T14:52:59.185Z,8.44
2023-03-11T14:58:05.867Z,8.36
2023-03-11T15:03:20.598Z,8.34
2023-03-11T15:08:26.432Z,8.30
2023-03-11T15:13:27.906Z,8.42
2023-03-11T15:18:31.905Z,8.47
2023-03-11T15:23:35.594Z,8.52
2023-03-11T15:28:38.303Z,8.53
2023-03-11T15:33:40.744Z,8.48
2023-03-11T15:38:42.282Z,8.55
2023-03-11T15:43:48.464Z,8.58
2023-03-11T15:48:49.948Z,8.58
2023-03-11T15:53:51.434Z,8.17
2023-03-11T15:58:52.975Z,8.06
2023-03-11T16:03:55.713Z,7.91
2023-03-11T16:08:57.278Z,7.91
2023-03-11T16:13:59.422Z,7.97
2023-03-11T16:19:00.909Z,7.99
2023-03-11T16:24:04.191Z,8.09
2023-03-11T16:29:18.190Z,8.10
2023-03-11T16:34:21.104Z,7.94
2023-03-11T16:39:22.596Z,7.97
2023-03-11T16:44:24.138Z,8.01
2023-03-11T16:49:25.642Z,8.00
2023-03-11T16:54:27.137Z,8.00
2023-03-11T16:59:28.743Z,8.01
2023-03-11T17:04:30.478Z,7.98
2023-03-11T17:09:32.951Z,7.92
2023-03-11T17:14:35.988Z,7.85
2023-03-11T17:19:37.445Z,7.74
2023-03-11T17:24:39.353Z,7.65
2023-03-11T17:29:42.600Z,7.44
2023-03-11T17:34:44.300Z,7.38
2023-03-11T17:39:45.933Z,7.40
2023-03-11T17:44:51.910Z,7.41
2023-03-11T17:49:53.981Z,7.21
2023-03-11T17:54:55.455Z,6.82
2023-03-11T17:59:56.952Z,6.52
2023-03-11T18:04:58.460Z,6.31
2023-03-11T18:09:59.958Z,6.33
2023-03-11T18:15:03.367Z,6.30
2023-03-11T18:20:05.225Z,6.36
2023-03-11T18:25:07.455Z,6.43
2023-03-11T18:30:09.576Z,6.52
2023-03-11T18:35:11.300Z,6.51
2023-03-11T18:40:13.152Z,6.52
2023-03-11T18:45:14.634Z,6.54
2023-03-11T18:50:16.483Z,6.63
2023-03-11T18:55:18.909Z,6.60
2023-03-11T19:00:21.051Z,6.44
2023-03-11T19:05:22.535Z,6.31
2023-03-11T19:10:24.091Z,6.37
2023-03-11T19:15:25.590Z,6.18
2023-03-11T19:20:27.130Z,6.20
2023-03-11T19:25:28.949Z,6.41
2023-03-11T19:30:30.492Z,6.37
2023-03-11T19:35:32.106Z,6.42
2023-03-11T19:40:33.644Z,6.47
2023-03-11T19:45:35.170Z,6.36
2023-03-11T19:50:36.671Z,6.57
2023-03-11T19:55:42.716Z,6.57
2023-03-11T20:00:44.630Z,6.53
2023-03-11T20:05:48.486Z,6.70
2023-03-11T20:10:51.755Z,6.61
2023-03-11T20:15:53.324Z,6.63
2023-03-11T20:20:54.889Z,6.75
2023-03-11T20:25:56.507Z,6.72
2023-03-11T20:30:58.165Z,6.59
2023-03-11T20:36:08.888Z,6.55
2023-03-11T20:41:10.527Z,6.54
2023-03-11T20:46:12.646Z,6.58
2023-03-11T20:51:17.173Z,6.64
2023-03-11T20:56:24.170Z,6.61
2023-03-11T21:01:30.553Z,6.60
2023-03-11T21:06:38.134Z,6.67
2023-03-11T21:11:39.720Z,6.85
2023-03-11T21:16:41.270Z,6.92
2023-03-11T21:21:42.959Z,6.90
2023-03-11T21:26:44.452Z,6.93
2023-03-11T21:31:46.083Z,6.82
2023-03-11T21:36:47.791Z,6.73
2023-03-11T21:41:49.428Z,6.70
2023-03-11T21:46:51.147Z,6.71
2023-03-11T21:51:52.719Z,6.73
2023-03-11T21:56:54.317Z,6.86
2023-03-11T22:01:55.957Z,6.82
2023-03-11T22:06:57.673Z,6.82
2023-03-11T22:11:59.265Z,6.80
2023-03-11T22:17:00.867Z,6.75
2023-03-11T22:22:02.502Z,6.60
2023-03-11T22:27:04.063Z,6.71
2023-03-11T22:32:05.710Z,6.80
2023-03-11T22:37:07.533Z,6.82
2023-03-11T22:42:11.405Z,6.82
2023-03-11T22:47:12.972Z,6.74
2023-03-11T22:52:14.460Z,6.70
2023-03-11T22:57:15.998Z,6.77
2023-03-11T23:02:17.452Z,6.83
2023-03-11T23:07:18.960Z,6.84
2023-03-11T23:12:20.493Z,6.79
2023-03-11T23:17:21.999Z,6.74
2023-03-11T23:22:23.621Z,6.73
2023-03-11T23:27:25.216Z,6.79
2023-03-11T23:32:26.760Z,6.87
2023-03-11T23:37:28.358Z,6.79
2023-03-11T23:42:33.054Z,6.91
2023-03-11T23:47:34.541Z,6.92
2023-03-11T23:52:36.015Z,6.87
2023-03-11T23:57:37.771Z,6.93
